Time;durP1;ratioP1;P1;durP2;ratioP2;P2;SDS_P1;SDS_P2;PMS_P1;PMS_P2;Temp;Humidity;BMP_temperature;BMP_pressure;BME280_temperature;BME280_humidity;BME280_pressure;Samples;Min_cycle;Max_cycle;Signal;HPM_P1;HPM_P2
2023/05/02 00:01:42;;;;;;;2.30;2.10;;;23.00;38.90;;;;;;5015320;28;20058;-59
2023/05/02 00:04:09;;;;;;;1.67;1.58;;;23.00;38.90;;;;;;5015553;28;20053;-59
2023/05/02 00:06:36;;;;;;;2.03;1.92;;;23.00;38.90;;;;;;5015474;28;20054;-59
2023/05/02 00:09:04;;;;;;;2.22;2.03;;;23.00;39.00;;;;;;5015489;28;20053;-59
2023/05/02 00:11:31;;;;;;;3.20;2.00;;;23.00;38.90;;;;;;5015588;28;20056;-60
2023/05/02 00:13:58;;;;;;;2.20;2.03;;;23.10;39.00;;;;;;5014323;28;20060;-59
2023/05/02 00:16:25;;;;;;;2.50;1.85;;;23.00;39.00;;;;;;5015644;28;20431;-60
2023/05/02 00:18:52;;;;;;;1.88;1.77;;;23.00;39.00;;;;;;5014134;28;20104;-60
2023/05/02 00:21:19;;;;;;;2.10;1.90;;;23.00;39.10;;;;;;4995586;28;20505;-60
2023/05/02 00:23:46;;;;;;;2.08;1.98;;;23.00;39.10;;;;;;5011548;28;20141;-60
2023/05/02 00:26:14;;;;;;;2.83;1.77;;;23.00;39.20;;;;;;5015443;28;20046;-59
2023/05/02 00:28:41;;;;;;;2.10;1.90;;;23.00;39.20;;;;;;5014775;28;20129;-60
2023/05/02 00:31:09;;;;;;;2.40;2.20;;;23.00;39.20;;;;;;5015078;28;20133;-59
2023/05/02 00:33:36;;;;;;;2.17;1.83;;;23.00;39.20;;;;;;5015272;28;20065;-59
2023/05/02 00:36:03;;;;;;;2.03;1.88;;;23.00;39.20;;;;;;5014840;28;20466;-59
2023/05/02 00:38:30;;;;;;;1.90;1.80;;;23.00;39.20;;;;;;5014716;28;20578;-59
2023/05/02 00:40:57;;;;;;;2.08;1.98;;;23.00;39.30;;;;;;5014717;28;20129;-59
2023/05/02 00:43:29;;;;;;;1.77;1.52;;;23.00;39.20;;;;;;4996978;28;20049;-59
2023/05/02 00:45:56;;;;;;;2.80;2.33;;;23.00;39.20;;;;;;5014593;28;20092;-59
2023/05/02 00:48:24;;;;;;;3.42;1.92;;;23.00;39.30;;;;;;5014202;28;20134;-59
2023/05/02 00:50:52;;;;;;;1.90;1.80;;;23.00;39.20;;;;;;5014223;28;20046;-60
2023/05/02 00:53:19;;;;;;;3.53;2.80;;;23.00;39.20;;;;;;5014683;28;20062;-60
2023/05/02 00:55:48;;;;;;;2.00;1.80;;;23.00;39.20;;;;;;5014916;28;20054;-60
2023/05/02 00:58:18;;;;;;;1.90;1.75;;;23.00;39.20;;;;;;5014723;28;20050;-59
2023/05/02 01:01:09;;;;;;;1.58;1.48;;;23.00;39.20;;;;;;5014691;28;20062;-59
2023/05/02 01:04:14;;;;;;;2.03;1.92;;;23.00;39.10;;;;;;5013925;28;20053;-59
2023/05/02 01:07:13;;;;;;;2.08;1.90;;;23.00;39.10;;;;;;5013126;28;20100;-59
2023/05/02 01:10:11;;;;;;;2.05;1.70;;;23.00;39.10;;;;;;5014299;28;20054;-60
2023/05/02 01:12:45;;;;;;;1.88;1.75;;;23.00;39.10;;;;;;5014163;28;20060;-59
2023/05/02 01:15:20;;;;;;;1.95;1.85;;;23.00;39.20;;;;;;5014264;28;20132;-59
2023/05/02 01:17:49;;;;;;;1.98;1.88;;;23.00;39.20;;;;;;5014444;28;20465;-59
2023/05/02 01:20:20;;;;;;;1.80;1.70;;;22.90;39.10;;;;;;5014064;28;20065;-59
2023/05/02 01:22:48;;;;;;;2.10;1.90;;;23.00;39.20;;;;;;5012774;28;20482;-59
2023/05/02 01:25:46;;;;;;;2.10;1.90;;;22.90;39.20;;;;;;5013957;28;20488;-60
2023/05/02 01:28:53;;;;;;;2.15;1.95;;;23.00;39.20;;;;;;5014008;28;20061;-59
2023/05/02 01:31:22;;;;;;;2.10;1.67;;;23.00;39.30;;;;;;5013090;28;20058;-59
2023/05/02 01:33:51;;;;;;;2.58;2.38;;;22.90;39.20;;;;;;5013239;28;20050;-60
2023/05/02 01:36:19;;;;;;;2.63;2.30;;;22.90;39.30;;;;;;5014274;28;20088;-60
2023/05/02 01:38:48;;;;;;;2.75;2.25;;;22.90;39.30;;;;;;5013888;28;20137;-59
2023/05/02 01:41:17;;;;;;;2.13;1.90;;;22.90;39.30;;;;;;5013756;28;20124;-59
2023/05/02 01:43:46;;;;;;;2.20;2.00;;;22.90;39.30;;;;;;5013730;28;20553;-59
2023/05/02 01:46:14;;;;;;;3.05;2.45;;;22.90;39.30;;;;;;5014054;28;20046;-59
2023/05/02 01:48:45;;;;;;;2.47;2.03;;;22.90;39.30;;;;;;5014045;28;20060;-60
2023/05/02 01:51:17;;;;;;;2.45;2.00;;;22.90;39.30;;;;;;5013782;28;20493;-59
2023/05/02 01:53:47;;;;;;;3.60;1.83;;;22.90;39.30;;;;;;5013744;28;20671;-60
2023/05/02 01:56:18;;;;;;;1.88;1.77;;;22.90;39.30;;;;;;5013609;28;20133;-59
2023/05/02 01:58:47;;;;;;;2.10;1.90;;;22.90;39.40;;;;;;5013245;28;20072;-60
2023/05/02 02:01:16;;;;;;;2.75;2.00;;;22.90;39.30;;;;;;5013433;28;20046;-59
2023/05/02 02:03:45;;;;;;;1.77;1.67;;;22.90;39.30;;;;;;5013199;28;20204;-59
2023/05/02 02:06:14;;;;;;;1.97;1.87;;;22.90;39.40;;;;;;5013345;28;20058;-60
2023/05/02 02:08:42;;;;;;;2.30;1.90;;;22.90;39.40;;;;;;5012675;28;20077;-60
2023/05/02 02:11:11;;;;;;;1.75;1.65;;;22.90;39.40;;;;;;5013653;28;20449;-59
2023/05/02 02:13:47;;;;;;;2.30;1.90;;;22.90;39.40;;;;;;5012994;28;20060;-59
2023/05/02 02:16:21;;;;;;;1.63;1.52;;;22.90;39.40;;;;;;5012928;28;20053;-59
2023/05/02 02:18:49;;;;;;;2.50;2.30;;;22.90;39.40;;;;;;5013532;28;20054;-60
2023/05/02 02:21:20;;;;;;;1.70;1.60;;;22.90;39.50;;;;;;5012158;28;20045;-60
2023/05/02 02:23:50;;;;;;;2.08;1.88;;;22.90;39.50;;;;;;5013033;28;20058;-59
2023/05/02 02:26:19;;;;;;;1.83;1.73;;;22.80;39.40;;;;;;5012750;28;20058;-60
2023/05/02 02:28:47;;;;;;;2.35;1.85;;;22.90;39.50;;;;;;5013199;28;20140;-60
2023/05/02 02:31:14;;;;;;;1.70;1.60;;;22.80;39.50;;;;;;5012915;28;20077;-59
2023/05/02 02:33:42;;;;;;;2.28;2.08;;;22.80;39.50;;;;;;5013113;28;20100;-59
2023/05/02 02:36:20;;;;;;;2.00;1.90;;;22.80;39.50;;;;;;5012619;28;20113;-60
2023/05/02 02:38:56;;;;;;;1.80;1.70;;;22.80;39.50;;;;;;5012984;28;20050;-59
2023/05/02 02:41:33;;;;;;;1.90;1.73;;;22.80;39.60;;;;;;5013021;28;20137;-60
2023/05/02 02:44:10;;;;;;;2.28;2.08;;;22.80;39.60;;;;;;5013413;28;20052;-59
2023/05/02 02:47:08;;;;;;;2.10;1.90;;;22.80;39.60;;;;;;5012693;28;20088;-60
2023/05/02 02:49:49;;;;;;;2.13;1.70;;;22.80;39.50;;;;;;5013158;28;20050;-60
2023/05/02 02:52:32;;;;;;;1.80;1.67;;;22.80;39.60;;;;;;5011789;28;20504;-59
2023/05/02 02:55:13;;;;;;;1.95;1.73;;;22.80;39.50;;;;;;5013295;28;20372;-59
2023/05/02 02:57:54;;;;;;;1.67;1.58;;;22.80;39.50;;;;;;5013054;28;20124;-60
2023/05/02 03:00:26;;;;;;;1.70;1.60;;;22.80;39.50;;;;;;5013049;28;20465;-60
2023/05/02 03:02:54;;;;;;;2.15;1.95;;;22.90;39.60;;;;;;5012706;28;20546;-60
2023/05/02 03:05:22;;;;;;;1.80;1.70;;;22.90;39.50;;;;;;5012409;28;20042;-60
2023/05/02 03:07:50;;;;;;;1.70;1.60;;;22.90;39.40;;;;;;5011448;28;20046;-59
2023/05/02 03:10:17;;;;;;;2.25;2.00;;;22.80;39.40;;;;;;5012789;28;20487;-60
2023/05/02 03:12:46;;;;;;;1.60;1.50;;;22.90;40.00;;;;;;5012998;28;20439;-59
2023/05/02 03:15:58;;;;;;;2.47;2.00;;;22.90;39.40;;;;;;5012984;28;20457;-59
2023/05/02 03:18:25;;;;;;;1.60;1.48;;;22.90;39.50;;;;;;5013080;28;20100;-59
2023/05/02 03:20:52;;;;;;;1.65;1.55;;;22.80;39.40;;;;;;5012666;28;20112;-59
2023/05/02 03:23:19;;;;;;;3.65;1.70;;;22.90;39.50;;;;;;5012759;28;20080;-60
2023/05/02 03:25:46;;;;;;;2.25;2.05;;;22.80;39.50;;;;;;5011125;28;20049;-60
2023/05/02 03:28:13;;;;;;;2.10;1.90;;;22.80;39.50;;;;;;5015967;28;20077;-60
2023/05/02 03:30:41;;;;;;;1.60;1.50;;;22.80;39.50;;;;;;5016178;28;20046;-59
2023/05/02 03:33:08;;;;;;;1.80;1.70;;;22.80;39.50;;;;;;5014723;28;20085;-60
2023/05/02 03:35:35;;;;;;;1.90;1.80;;;22.80;39.50;;;;;;5008561;28;20057;-59
2023/05/02 03:38:03;;;;;;;2.35;1.88;;;22.80;39.50;;;;;;4996058;28;20142;-59
2023/05/02 03:40:30;;;;;;;1.58;1.48;;;22.80;39.50;;;;;;4996749;28;20054;-60
2023/05/02 03:42:57;;;;;;;1.83;1.73;;;22.80;39.60;;;;;;5004360;28;20486;-59
2023/05/02 03:45:24;;;;;;;1.60;1.50;;;22.80;39.60;;;;;;5015876;28;20132;-59
2023/05/02 03:47:51;;;;;;;1.92;1.73;;;22.80;39.60;;;;;;5010195;28;20054;-60
2023/05/02 03:50:19;;;;;;;1.90;1.80;;;22.80;39.50;;;;;;5016195;28;20045;-59
2023/05/02 03:52:46;;;;;;;1.90;1.77;;;22.80;39.60;;;;;;5031037;28;20074;-60
2023/05/02 03:55:13;;;;;;;1.48;1.38;;;22.80;39.50;;;;;;5014958;28;20050;-59
2023/05/02 03:57:41;;;;;;;2.35;1.80;;;22.80;39.50;;;;;;5006983;28;20054;-60
2023/05/02 04:00:09;;;;;;;1.77;1.67;;;22.90;39.60;;;;;;4996677;28;20050;-59
2023/05/02 04:02:36;;;;;;;1.70;1.60;;;22.80;39.60;;;;;;5014968;28;20140;-59
2023/05/02 04:05:04;;;;;;;1.60;1.50;;;22.80;39.60;;;;;;5014361;28;20100;-59
2023/05/02 04:07:31;;;;;;;1.75;1.65;;;22.80;39.50;;;;;;5011788;28;20049;-59
2023/05/02 04:09:58;;;;;;;1.58;1.48;;;22.80;39.70;;;;;;5001703;28;20050;-59
2023/05/02 04:12:26;;;;;;;1.73;1.63;;;22.80;39.50;;;;;;5011942;28;20054;-60
2023/05/02 04:14:53;;;;;;;1.67;1.58;;;22.90;39.50;;;;;;5013943;28;20046;-59
2023/05/02 04:17:21;;;;;;;1.63;1.52;;;22.80;39.50;;;;;;5014736;28;20072;-60
2023/05/02 04:19:48;;;;;;;1.75;1.65;;;22.90;39.50;;;;;;5015305;28;20536;-59
2023/05/02 04:22:15;;;;;;;2.85;2.15;;;22.90;39.50;;;;;;5015326;28;20056;-59
2023/05/02 04:24:42;;;;;;;1.60;1.50;;;22.90;39.50;;;;;;5014056;28;20148;-60
2023/05/02 04:27:09;;;;;;;1.65;1.55;;;22.90;39.50;;;;;;5014610;28;20046;-60
2023/05/02 04:29:40;;;;;;;2.00;1.73;;;22.90;39.50;;;;;;5006206;28;20137;-59
2023/05/02 04:32:07;;;;;;;1.50;1.40;;;22.90;39.50;;;;;;5010496;28;20038;-59
2023/05/02 04:34:34;;;;;;;1.98;1.40;;;23.00;39.50;;;;;;5014963;28;20565;-59
2023/05/02 04:37:01;;;;;;;1.67;1.58;;;23.00;39.50;;;;;;5014853;28;20046;-60
2023/05/02 04:39:28;;;;;;;1.40;1.30;;;23.00;39.30;;;;;;5014214;28;20137;-60
2023/05/02 04:41:56;;;;;;;1.98;1.77;;;23.00;39.30;;;;;;5013555;28;20108;-59
2023/05/02 04:44:23;;;;;;;1.95;1.80;;;23.10;39.20;;;;;;5013949;28;20057;-59
2023/05/02 04:46:50;;;;;;;2.03;1.88;;;23.10;39.20;;;;;;5012335;28;20141;-59
2023/05/02 04:49:18;;;;;;;2.00;1.90;;;23.10;39.10;;;;;;5014411;28;20058;-59
2023/05/02 04:51:45;;;;;;;2.42;1.90;;;23.10;39.10;;;;;;5014469;28;20077;-60
2023/05/02 04:54:12;;;;;;;1.95;1.75;;;23.20;39.10;;;;;;5014167;28;20073;-59
2023/05/02 04:56:40;;;;;;;2.75;1.88;;;23.20;39.10;;;;;;5014291;28;20494;-59
2023/05/02 04:59:07;;;;;;;2.47;2.28;;;23.20;39.00;;;;;;5014159;28;20080;-59
2023/05/02 05:01:34;;;;;;;1.95;1.85;;;23.20;38.90;;;;;;5014163;28;20057;-59
2023/05/02 05:04:01;;;;;;;1.83;1.73;;;23.30;38.90;;;;;;5014018;28;20112;-59
2023/05/02 05:06:29;;;;;;;2.13;1.88;;;23.30;38.90;;;;;;5011854;28;20141;-59
2023/05/02 05:08:56;;;;;;;1.70;1.60;;;23.30;38.90;;;;;;5013443;28;20050;-58
2023/05/02 05:11:24;;;;;;;2.08;1.92;;;23.30;38.80;;;;;;5006754;28;20133;-59
2023/05/02 05:13:51;;;;;;;1.67;1.58;;;23.40;38.90;;;;;;5009082;28;20052;-59
2023/05/02 05:16:18;;;;;;;2.33;1.92;;;23.40;38.80;;;;;;5016152;28;20077;-59
2023/05/02 05:18:46;;;;;;;1.70;1.60;;;23.40;38.70;;;;;;5007036;28;20041;-60
2023/05/02 05:21:13;;;;;;;1.85;1.75;;;23.40;38.70;;;;;;5006738;28;20042;-58
2023/05/02 05:23:44;;;;;;;3.00;1.92;;;23.40;38.60;;;;;;4999783;28;20058;-58
2023/05/02 05:26:14;;;;;;;2.05;1.73;;;23.50;38.70;;;;;;5002529;28;20140;-56
2023/05/02 05:28:42;;;;;;;2.00;1.53;;;23.50;38.70;;;;;;5016015;28;20192;-56
2023/05/02 05:31:12;;;;;;;2.38;1.90;;;23.50;38.70;;;;;;5005258;28;20133;-56
2023/05/02 05:33:43;;;;;;;2.10;1.90;;;23.60;38.80;;;;;;5003398;28;20046;-57
2023/05/02 05:36:13;;;;;;;2.78;1.95;;;23.60;39.00;;;;;;4997308;28;20042;-58
2023/05/02 05:38:40;;;;;;;1.55;1.45;;;23.60;39.20;;;;;;5004673;28;20057;-55
2023/05/02 05:41:08;;;;;;;2.63;1.92;;;23.60;39.20;;;;;;5004514;28;20101;-57
2023/05/02 05:43:35;;;;;;;3.40;1.80;;;23.60;39.30;;;;;;5004194;28;20054;-58
2023/05/02 05:46:04;;;;;;;2.03;1.83;;;23.70;39.20;;;;;;4997812;28;20498;-56
2023/05/02 05:48:33;;;;;;;1.90;1.80;;;23.70;39.20;;;;;;5002329;28;20050;-57
2023/05/02 05:51:04;;;;;;;1.70;1.60;;;23.70;38.90;;;;;;5000340;28;20049;-58
2023/05/02 05:53:31;;;;;;;1.85;1.70;;;23.80;38.80;;;;;;5002068;28;20512;-58
2023/05/02 05:56:08;;;;;;;3.65;2.17;;;23.80;38.90;;;;;;4998326;28;20474;-58
2023/05/02 05:58:35;;;;;;;2.28;2.08;;;23.80;38.80;;;;;;5001564;28;20144;-58
2023/05/02 06:01:02;;;;;;;3.90;2.33;;;23.90;39.00;;;;;;5003548;28;20057;-53
2023/05/02 06:03:29;;;;;;;3.35;2.03;;;23.90;38.90;;;;;;5006088;28;20538;-59
2023/05/02 06:05:57;;;;;;;2.28;1.95;;;23.90;39.10;;;;;;5003995;28;20060;-59
2023/05/02 06:08:24;;;;;;;3.53;2.20;;;23.90;39.40;;;;;;5002759;28;20433;-59
2023/05/02 06:10:52;;;;;;;3.83;2.08;;;23.90;39.30;;;;;;4998212;28;20246;-59
2023/05/02 06:13:19;;;;;;;7.10;3.00;;;24.00;39.20;;;;;;4992216;28;20437;-60
2023/05/02 06:15:46;;;;;;;3.30;2.20;;;24.00;39.10;;;;;;4999180;28;20501;-59
2023/05/02 06:18:14;;;;;;;3.40;1.77;;;24.10;39.30;;;;;;5001315;28;20100;-57
2023/05/02 06:20:41;;;;;;;2.72;2.00;;;24.00;39.00;;;;;;4998403;28;20116;-59
2023/05/02 06:23:09;;;;;;;5.43;2.22;;;24.10;39.00;;;;;;5001537;28;20050;-58
2023/05/02 06:25:37;;;;;;;3.53;2.15;;;24.10;39.00;;;;;;4998182;28;20049;-57
2023/05/02 06:28:04;;;;;;;2.72;2.22;;;24.10;39.10;;;;;;4999988;28;20511;-59
2023/05/02 06:30:32;;;;;;;2.75;2.25;;;24.20;39.20;;;;;;5000207;28;20038;-59
2023/05/02 06:32:59;;;;;;;5.18;2.45;;;24.30;39.30;;;;;;4999586;28;20548;-61
2023/05/02 06:35:26;;;;;;;3.35;2.13;;;24.30;39.30;;;;;;4999127;28;20056;-59
2023/05/02 06:37:54;;;;;;;2.60;1.90;;;24.30;39.10;;;;;;5000073;28;20100;-59
2023/05/02 06:40:21;;;;;;;4.60;2.75;;;24.40;39.00;;;;;;4996449;28;20050;-57
2023/05/02 06:42:49;;;;;;;7.60;2.00;;;24.50;38.90;;;;;;5002090;28;20066;-60
2023/05/02 06:45:16;;;;;;;3.17;2.08;;;24.50;38.90;;;;;;4997232;28;20104;-58
2023/05/02 06:47:44;;;;;;;2.88;2.05;;;24.50;39.20;;;;;;4998224;28;20042;-54
2023/05/02 06:50:11;;;;;;;3.78;2.20;;;24.50;39.00;;;;;;5000041;28;20519;-59
2023/05/02 06:52:38;;;;;;;6.18;2.40;;;24.60;39.00;;;;;;4996734;28;20038;-56
2023/05/02 06:55:06;;;;;;;3.83;2.38;;;24.70;38.90;;;;;;4998044;28;20137;-55
2023/05/02 06:57:34;;;;;;;2.38;2.15;;;24.60;38.80;;;;;;4996631;28;20112;-57
2023/05/02 07:00:01;;;;;;;7.35;2.60;;;24.70;38.60;;;;;;4999334;28;20052;-57
2023/05/02 07:02:29;;;;;;;3.60;2.30;;;24.70;38.60;;;;;;4998630;28;20058;-53
2023/05/02 07:04:56;;;;;;;5.70;2.38;;;24.70;38.50;;;;;;5001228;28;20073;-57
2023/05/02 07:07:24;;;;;;;3.78;2.38;;;24.70;38.60;;;;;;5002988;28;20062;-57
2023/05/02 07:09:52;;;;;;;5.15;2.22;;;24.70;38.70;;;;;;5004038;28;20050;-56
2023/05/02 07:12:22;;;;;;;5.68;3.20;;;24.80;38.90;;;;;;5001960;28;20152;-58
2023/05/02 07:14:49;;;;;;;6.13;2.95;;;24.70;38.90;;;;;;5004414;28;20050;-58
2023/05/02 07:17:17;;;;;;;3.33;2.40;;;24.80;38.90;;;;;;5003577;28;20045;-57
2023/05/02 07:19:44;;;;;;;4.10;2.50;;;24.80;38.80;;;;;;5006445;28;20148;-58
2023/05/02 07:22:11;;;;;;;2.50;2.08;;;24.90;38.70;;;;;;5003633;28;20551;-57
2023/05/02 07:24:42;;;;;;;3.35;2.33;;;24.90;38.70;;;;;;5001444;28;20536;-57
2023/05/02 07:27:10;;;;;;;2.75;2.10;;;24.90;38.50;;;;;;5002475;28;20042;-57
2023/05/02 07:29:38;;;;;;;5.22;1.95;;;25.00;38.50;;;;;;5001793;28;20133;-58
2023/05/02 07:32:05;;;;;;;5.60;3.00;;;25.00;39.10;;;;;;5000525;28;20056;-57
2023/05/02 07:34:33;;;;;;;3.85;2.88;;;25.00;38.60;;;;;;5000180;28;20053;-58
2023/05/02 07:37:00;;;;;;;5.80;2.22;;;25.00;38.50;;;;;;4988106;28;20804;-59
2023/05/02 07:39:27;;;;;;;2.00;1.80;;;25.00;38.50;;;;;;5001279;28;20046;-58
2023/05/02 07:41:55;;;;;;;5.10;2.38;;;25.00;38.60;;;;;;5002572;28;20115;-57
2023/05/02 07:44:23;;;;;;;4.15;2.25;;;25.10;38.70;;;;;;5003184;28;20081;-58
2023/05/02 07:46:51;;;;;;;2.15;2.00;;;25.10;38.60;;;;;;5002369;28;20060;-58
2023/05/02 07:49:19;;;;;;;3.83;2.42;;;25.10;38.50;;;;;;5003337;28;20550;-58
2023/05/02 07:51:46;;;;;;;2.53;2.30;;;25.20;38.70;;;;;;5001813;28;20465;-58
2023/05/02 07:54:15;;;;;;;11.18;2.90;;;25.20;38.50;;;;;;5007902;28;20050;-59
2023/05/02 07:56:42;;;;;;;5.00;1.70;;;25.30;38.40;;;;;;5004585;28;20554;-58
2023/05/02 07:59:10;;;;;;;2.20;2.00;;;25.20;38.20;;;;;;5003559;28;20050;-59
2023/05/02 08:01:38;;;;;;;6.70;2.50;;;25.20;38.20;;;;;;5003263;28;20379;-57
2023/05/02 08:04:06;;;;;;;2.67;2.05;;;25.30;38.20;;;;;;5001088;28;20057;-57
2023/05/02 08:06:35;;;;;;;9.70;2.70;;;25.30;38.70;;;;;;5001354;28;20497;-57
2023/05/02 08:09:03;;;;;;;4.87;2.03;;;25.30;38.10;;;;;;5002272;28;20144;-58
2023/05/02 08:11:30;;;;;;;2.72;2.03;;;25.40;38.10;;;;;;5000678;28;20051;-58
2023/05/02 08:13:57;;;;;;;3.10;2.33;;;25.30;38.00;;;;;;5001998;28;20052;-58
2023/05/02 08:16:24;;;;;;;3.72;2.03;;;25.40;38.00;;;;;;5001882;28;20073;-58
2023/05/02 08:18:52;;;;;;;2.17;1.95;;;25.40;37.90;;;;;;5002879;28;20499;-58
2023/05/02 08:21:19;;;;;;;5.60;2.38;;;25.40;37.90;;;;;;5004628;28;20069;-58
2023/05/02 08:23:47;;;;;;;5.90;2.20;;;25.40;38.00;;;;;;4999267;28;20527;-58
2023/05/02 08:26:14;;;;;;;5.35;2.50;;;25.40;38.00;;;;;;4999629;28;20068;-57
2023/05/02 08:28:42;;;;;;;2.17;1.98;;;25.40;38.00;;;;;;5002923;28;20045;-58
2023/05/02 08:31:10;;;;;;;4.82;2.33;;;25.40;38.00;;;;;;5002355;28;20502;-60
2023/05/02 08:33:37;;;;;;;2.20;2.00;;;25.40;38.10;;;;;;5004806;28;20414;-58
2023/05/02 08:36:12;;;;;;;4.13;2.42;;;25.40;38.60;;;;;;5002894;28;20128;-59
2023/05/02 08:38:41;;;;;;;4.20;2.20;;;25.50;38.00;;;;;;5002224;28;20133;-58
2023/05/02 08:41:16;;;;;;;2.63;2.13;;;25.50;37.90;;;;;;5003978;28;20078;-58
2023/05/02 08:43:45;;;;;;;5.90;1.95;;;25.60;38.00;;;;;;4998240;28;20482;-58
2023/05/02 08:46:14;;;;;;;2.15;1.98;;;25.60;37.90;;;;;;5003818;28;20521;-58
2023/05/02 08:48:44;;;;;;;13.48;2.70;;;25.60;37.90;;;;;;5003488;28;20478;-57
2023/05/02 08:51:14;;;;;;;2.72;2.38;;;25.60;38.00;;;;;;5002162;28;20084;-58
2023/05/02 08:53:41;;;;;;;;;;;25.60;37.90;;;;;;5001068;28;20100;-58
2023/05/02 08:56:10;;;;;;;2.92;1.83;;;25.70;37.90;;;;;;5003357;28;19936;-58
2023/05/02 08:58:39;;;;;;;3.63;2.30;;;25.70;37.90;;;;;;5001589;28;20078;-61
2023/05/02 09:01:16;;;;;;;2.20;2.00;;;25.70;37.80;;;;;;5001414;28;20046;-59
2023/05/02 09:03:45;;;;;;;2.15;1.95;;;25.70;37.70;;;;;;5005523;28;20050;-58
2023/05/02 09:06:20;;;;;;;2.33;2.10;;;25.70;37.70;;;;;;5009397;28;20042;-59
2023/05/02 09:08:49;;;;;;;4.85;2.42;;;25.70;37.80;;;;;;5004838;28;20299;-58
2023/05/02 09:11:18;;;;;;;4.22;2.40;;;25.70;37.70;;;;;;5002507;28;20508;-59
2023/05/02 09:13:47;;;;;;;3.75;2.25;;;25.70;37.70;;;;;;5004207;28;20046;-59
2023/05/02 09:16:24;;;;;;;2.42;2.20;;;25.80;37.70;;;;;;5006396;28;20050;-59
2023/05/02 09:18:54;;;;;;;2.33;2.10;;;25.80;37.70;;;;;;5007138;28;20102;-58
2023/05/02 09:21:35;;;;;;;2.17;2.08;;;25.80;37.70;;;;;;5002262;28;20463;-58
2023/05/02 09:24:16;;;;;;;1.85;1.75;;;25.80;37.60;;;;;;5000537;28;20049;-59
2023/05/02 09:27:03;;;;;;;2.30;2.10;;;25.80;37.60;;;;;;5004908;28;20049;-57
2023/05/02 09:29:37;;;;;;;2.35;2.15;;;25.90;37.60;;;;;;4998825;28;20502;-58
2023/05/02 09:32:06;;;;;;;2.10;2.00;;;25.90;37.70;;;;;;5000983;28;20069;-58
2023/05/02 09:34:33;;;;;;;1.83;1.48;;;25.90;37.60;;;;;;4999559;28;20062;-57
2023/05/02 09:37:02;;;;;;;3.72;1.80;;;25.90;37.60;;;;;;5002770;28;20046;-56
2023/05/02 09:39:30;;;;;;;4.75;2.10;;;25.90;37.60;;;;;;5003974;28;20421;-58
2023/05/02 09:41:58;;;;;;;3.47;1.80;;;25.90;37.60;;;;;;5003131;28;20042;-58
2023/05/02 09:44:35;;;;;;;2.47;2.20;;;25.90;37.60;;;;;;4982502;28;20486;-58
2023/05/02 09:47:02;;;;;;;3.33;2.30;;;25.90;37.60;;;;;;5002897;28;20057;-58
2023/05/02 09:49:43;;;;;;;3.92;2.20;;;25.90;37.60;;;;;;4988007;28;20165;-58
2023/05/02 09:52:13;;;;;;;3.80;2.05;;;25.90;37.60;;;;;;5001864;28;20045;-59
2023/05/02 09:54:41;;;;;;;6.32;2.20;;;25.90;37.60;;;;;;5002365;28;20050;-58
2023/05/02 09:57:09;;;;;;;4.68;2.05;;;26.00;37.60;;;;;;5006182;28;20042;-58
2023/05/02 09:59:38;;;;;;;4.03;2.38;;;26.00;37.70;;;;;;5005719;28;20502;-59
2023/05/02 10:02:08;;;;;;;2.88;2.50;;;26.00;37.60;;;;;;5009967;28;20042;-57
2023/05/02 10:04:36;;;;;;;2.90;2.53;;;26.00;37.70;;;;;;5006085;28;20053;-58
2023/05/02 10:07:05;;;;;;;3.08;2.33;;;26.00;37.60;;;;;;5006032;28;20045;-57
2023/05/02 10:09:36;;;;;;;5.13;2.10;;;26.10;37.70;;;;;;5008580;28;20187;-57
2023/05/02 10:12:03;;;;;;;4.30;2.20;;;26.10;37.70;;;;;;5005775;28;20156;-60
2023/05/02 10:14:34;;;;;;;2.67;2.42;;;26.10;37.70;;;;;;5005899;28;20211;-57
2023/05/02 10:17:12;;;;;;;3.22;2.35;;;26.10;37.60;;;;;;5005820;28;20473;-58
2023/05/02 10:20:06;;;;;;;5.63;2.20;;;26.10;37.50;;;;;;5002975;28;20042;-59
2023/05/02 10:22:34;;;;;;;3.95;2.33;;;26.20;37.60;;;;;;5000605;28;20108;-57
2023/05/02 10:25:03;;;;;;;2.80;2.40;;;26.10;37.60;;;;;;5001707;28;20379;-58
2023/05/02 10:27:31;;;;;;;4.68;2.20;;;26.10;37.50;;;;;;5005069;28;20050;-57
2023/05/02 10:30:00;;;;;;;4.97;2.15;;;26.10;37.60;;;;;;5010025;28;20520;-58
2023/05/02 10:32:31;;;;;;;2.42;2.10;;;26.20;37.70;;;;;;5007098;28;20554;-58
2023/05/02 10:35:02;;;;;;;3.45;2.30;;;26.10;37.30;;;;;;5002586;28;20157;-58
2023/05/02 10:37:32;;;;;;;4.13;2.45;;;26.20;37.10;;;;;;5009170;28;20421;-58
2023/05/02 10:40:00;;;;;;;4.13;2.67;;;26.20;37.20;;;;;;5008305;28;20482;-58
2023/05/02 10:42:29;;;;;;;3.10;2.50;;;26.20;37.20;;;;;;5005477;28;20519;-58
2023/05/02 10:44:56;;;;;;;3.03;2.28;;;26.30;37.30;;;;;;5000162;28;20072;-59
2023/05/02 10:47:25;;;;;;;4.13;2.50;;;26.30;37.40;;;;;;5001977;28;20060;-58
2023/05/02 10:49:56;;;;;;;8.30;4.13;;;26.30;37.40;;;;;;5006956;28;20054;-58
2023/05/02 10:52:29;;;;;;;3.65;2.40;;;26.30;36.90;;;;;;5001066;28;20310;-58
2023/05/02 10:55:19;;;;;;;2.67;2.47;;;26.40;37.30;;;;;;4997847;28;20140;-58
2023/05/02 10:58:25;;;;;;;5.88;2.83;;;26.40;37.30;;;;;;5001788;28;20578;-57
2023/05/02 11:00:52;;;;;;;4.47;3.17;;;26.40;37.50;;;;;;4995825;28;20076;-58
2023/05/02 11:03:55;;;;;;;3.35;3.05;;;26.40;36.90;;;;;;5002164;28;20046;-58
2023/05/02 11:06:25;;;;;;;6.70;3.05;;;26.50;37.10;;;;;;5000206;28;20132;-58
2023/05/02 11:08:53;;;;;;;4.10;2.85;;;26.40;36.90;;;;;;4999620;28;20045;-58
2023/05/02 11:11:43;;;;;;;3.20;2.90;;;26.40;36.90;;;;;;5000104;28;20057;-57
2023/05/02 11:14:31;;;;;;;2.67;2.47;;;26.50;37.00;;;;;;4999772;28;20058;-58
2023/05/02 11:17:07;;;;;;;5.32;3.25;;;26.50;37.10;;;;;;5005309;28;20520;-57
2023/05/02 11:20:14;;;;;;;5.10;2.60;;;26.50;37.30;;;;;;4997480;28;20054;-58
2023/05/02 11:22:43;;;;;;;13.27;3.33;;;26.50;37.40;;;;;;4973854;28;20419;-58
2023/05/02 11:25:29;;;;;;;8.90;2.80;;;26.50;37.50;;;;;;5000484;28;20137;-58
2023/05/02 11:27:57;;;;;;;3.10;2.60;;;26.60;37.60;;;;;;4999531;28;20047;-59
2023/05/02 11:30:42;;;;;;;4.35;3.20;;;26.50;37.10;;;;;;5000511;28;20064;-58
2023/05/02 11:33:11;;;;;;;10.48;3.20;;;26.50;37.20;;;;;;5004876;28;20038;-58
2023/05/02 11:35:42;;;;;;;8.10;2.70;;;26.50;37.00;;;;;;5005005;28;20206;-58
2023/05/02 11:38:15;;;;;;;7.93;2.65;;;26.50;37.80;;;;;;5005093;28;20049;-59
2023/05/02 11:40:50;;;;;;;5.05;3.35;;;26.50;37.30;;;;;;5000700;28;20115;-59
2023/05/02 11:43:20;;;;;;;10.10;3.22;;;26.50;37.80;;;;;;5002577;28;20133;-59
2023/05/02 11:45:48;;;;;;;4.20;2.88;;;26.50;37.70;;;;;;5005126;28;20176;-59
2023/05/02 11:48:19;;;;;;;4.07;3.20;;;26.50;38.00;;;;;;5004132;28;20053;-60
2023/05/02 11:50:51;;;;;;;6.30;3.25;;;26.60;38.10;;;;;;5002977;28;20050;-60
2023/05/02 11:53:24;;;;;;;6.85;3.33;;;26.50;37.80;;;;;;5008707;28;20137;-60
2023/05/02 11:55:53;;;;;;;3.40;3.13;;;26.60;37.90;;;;;;5010250;28;20053;-59
2023/05/02 11:58:23;;;;;;;4.82;2.88;;;26.60;37.80;;;;;;5004495;28;20417;-59
2023/05/02 12:00:51;;;;;;;3.22;2.90;;;26.60;37.70;;;;;;5009684;28;20482;-60
2023/05/02 12:03:26;;;;;;;3.17;2.88;;;26.60;37.40;;;;;;5003433;28;20100;-60
2023/05/02 12:05:54;;;;;;;4.63;2.55;;;26.60;37.40;;;;;;5011077;28;20041;-59
2023/05/02 12:08:27;;;;;;;4.10;2.75;;;26.60;37.50;;;;;;5003416;28;20054;-59
2023/05/02 12:10:55;;;;;;;3.67;3.05;;;26.60;37.60;;;;;;5006394;28;20089;-59
2023/05/02 12:13:25;;;;;;;6.82;2.70;;;26.60;37.70;;;;;;5004680;28;20371;-60
2023/05/02 12:15:53;;;;;;;6.13;2.95;;;26.60;37.80;;;;;;5005974;28;20136;-59
2023/05/02 12:18:22;;;;;;;6.15;2.50;;;26.50;37.80;;;;;;5004290;28;20056;-60
2023/05/02 12:20:51;;;;;;;3.93;2.63;;;26.50;37.90;;;;;;5004128;28;20063;-60
2023/05/02 12:23:20;;;;;;;4.78;3.10;;;26.50;38.00;;;;;;5003707;28;20302;-60
2023/05/02 12:25:48;;;;;;;5.10;2.90;;;26.50;37.90;;;;;;5008895;28;20049;-59
2023/05/02 12:28:18;;;;;;;3.72;2.83;;;26.50;38.00;;;;;;5008768;28;20104;-59
2023/05/02 12:30:48;;;;;;;7.70;2.72;;;26.50;38.00;;;;;;5014487;28;20465;-60
2023/05/02 12:33:16;;;;;;;5.22;2.47;;;26.50;38.10;;;;;;5004935;28;20049;-62
2023/05/02 12:35:47;;;;;;;6.18;2.80;;;26.50;38.10;;;;;;5004404;28;20053;-61
2023/05/02 12:38:19;;;;;;;6.22;3.08;;;26.50;38.00;;;;;;5004427;28;20085;-60
2023/05/02 12:40:56;;;;;;;7.32;3.03;;;26.50;38.10;;;;;;5002927;28;20053;-60
2023/05/02 12:43:23;;;;;;;5.53;2.92;;;26.50;38.10;;;;;;5002757;28;20494;-60
2023/05/02 12:46:09;;;;;;;6.13;2.60;;;26.50;38.20;;;;;;5006744;28;20050;-59
2023/05/02 12:48:37;;;;;;;9.43;3.28;;;26.40;38.10;;;;;;5004647;28;20042;-59
2023/05/02 12:51:20;;;;;;;8.63;3.53;;;26.40;38.30;;;;;;5002825;28;20085;-59
2023/05/02 12:53:47;;;;;;;5.75;2.80;;;26.40;38.20;;;;;;4999474;28;20109;-59
2023/05/02 12:56:15;;;;;;;6.50;3.13;;;26.40;38.20;;;;;;5001854;28;20057;-59
2023/05/02 12:58:45;;;;;;;4.70;2.67;;;26.30;38.30;;;;;;5001153;28;20120;-59
2023/05/02 13:01:14;;;;;;;4.90;2.60;;;26.30;38.50;;;;;;5000843;28;20104;-61
2023/05/02 13:03:42;;;;;;;4.40;2.63;;;26.40;38.70;;;;;;5002719;28;20060;-61
2023/05/02 13:06:10;;;;;;;6.70;2.63;;;26.30;38.80;;;;;;4996697;28;20490;-60